Time;durP1;ratioP1;P1;durP2;ratioP2;P2;SDS_P1;SDS_P2;PMS_P1;PMS_P2;Temp;Humidity;BMP_temperature;BMP_pressure;BME280_temperature;BME280_humidity;BME280_pressure;Samples;Min_cycle;Max_cycle;Signal;HPM_P1;HPM_P2
2022/05/01 00:01:21;;;;;;;3.83;3.45;;;;;;;;;;5004900;28;20269;-18
2022/05/01 00:03:49;;;;;;;3.78;3.47;;;;;;;;;;5000057;28;20323;-17
2022/05/01 00:06:16;;;;;;;3.53;3.17;;;;;;;;;;4999040;28;20232;-18
2022/05/01 00:08:43;;;;;;;4.82;3.40;;;;;;;;;;5002671;28;20223;-18
2022/05/01 00:11:11;;;;;;;3.67;3.28;;;;;;;;;;5002632;28;20334;-15
2022/05/01 00:13:40;;;;;;;4.45;3.80;;;;;;;;;;5000310;28;20243;-18
2022/05/01 00:16:07;;;;;;;3.70;3.40;;;;;;;;;;5004130;28;20314;-18
2022/05/01 00:18:36;;;;;;;3.60;3.22;;;;;;;;;;5000380;28;20231;-18
2022/05/01 00:21:04;;;;;;;4.13;3.47;;;;;;;;;;5005223;28;20298;-18
2022/05/01 00:23:31;;;;;;;3.67;3.38;;;;;;;;;;5000703;28;20739;-18
2022/05/01 00:25:58;;;;;;;4.35;3.50;;;;;;;;;;5000902;28;20546;-18
2022/05/01 00:28:26;;;;;;;4.18;3.78;;;;;;;;;;5002948;28;20236;-18
2022/05/01 00:30:53;;;;;;;3.42;3.13;;;;;;;;;;5002132;28;20235;-17
2022/05/01 00:38:53;;;;;;;4.13;3.72;;;;;;;;;;5003445;28;20242;-17
2022/05/01 00:41:21;;;;;;;3.67;3.30;;;;;;;;;;5000855;28;20239;-18
2022/05/01 00:43:58;;;;;;;4.32;3.28;;;;;;;;;;5002607;28;20976;-17
2022/05/01 00:46:26;;;;;;;4.03;3.45;;;;;;;;;;4998289;28;20240;-16
2022/05/01 00:48:53;;;;;;;3.63;3.33;;;;;;;;;;5002450;28;20236;-17
2022/05/01 00:51:22;;;;;;;3.40;3.10;;;;;;;;;;5002101;28;20318;-18
2022/05/01 00:53:49;;;;;;;3.75;3.25;;;;;;;;;;5002252;28;20250;-18
2022/05/01 00:56:17;;;;;;;3.80;3.28;;;;;;;;;;4998492;28;20734;-17
2022/05/01 00:58:44;;;;;;;3.85;3.45;;;;;;;;;;5002856;28;20710;-18
2022/05/01 01:01:12;;;;;;;3.90;3.50;;;;;;;;;;5004598;28;20243;-17
2022/05/01 01:03:39;;;;;;;4.68;3.25;;;;;;;;;;5002045;28;20228;-18
2022/05/01 01:06:07;;;;;;;5.00;3.40;;;;;;;;;;4999912;28;20240;-17
2022/05/01 01:08:35;;;;;;;3.78;3.40;;;;;;;;;;5003256;28;20236;-18
2022/05/01 01:11:03;;;;;;;3.90;3.50;;;;;;;;;;4999843;28;20247;-18
2022/05/01 01:13:30;;;;;;;3.97;3.22;;;;;;;;;;5003763;28;20240;-18
2022/05/01 01:15:57;;;;;;;4.00;3.50;;;;;;;;;;5006385;28;20231;-18
2022/05/01 01:18:27;;;;;;;3.97;3.40;;;;;;;;;;5005530;28;20319;-17
2022/05/01 01:20:55;;;;;;;3.65;3.35;;;;;;;;;;5008224;28;20231;-17
2022/05/01 01:23:23;;;;;;;4.03;3.63;;;;;;;;;;5005075;28;20734;-16
2022/05/01 01:25:50;;;;;;;4.20;3.60;;;;;;;;;;5008045;28;20235;-16
2022/05/01 01:28:18;;;;;;;3.97;3.50;;;;;;;;;;5005262;28;20223;-17
2022/05/01 01:33:30;;;;;;;3.55;3.25;;;;;;;;;;5006276;28;20242;-18
2022/05/01 01:35:59;;;;;;;3.50;3.20;;;;;;;;;;5002112;28;20238;-18
2022/05/01 01:38:27;;;;;;;3.88;3.47;;;;;;;;;;5006818;28;20325;-17
2022/05/01 01:40:54;;;;;;;4.40;3.30;;;;;;;;;;5002826;28;20228;-18
2022/05/01 01:43:23;;;;;;;4.35;3.42;;;;;;;;;;5004429;28;20224;-18
2022/05/01 01:45:51;;;;;;;4.05;3.65;;;;;;;;;;5000829;28;20246;-17
2022/05/01 01:48:18;;;;;;;5.22;3.65;;;;;;;;;;5005197;28;20267;-18
2022/05/01 01:50:54;;;;;;;3.85;3.45;;;;;;;;;;5005050;28;20227;-18
2022/05/01 01:53:23;;;;;;;3.85;3.45;;;;;;;;;;5005517;28;20235;-16
2022/05/01 01:55:51;;;;;;;4.55;3.47;;;;;;;;;;5001757;28;20234;-17
2022/05/01 01:58:18;;;;;;;4.18;3.42;;;;;;;;;;5002524;28;20228;-17
2022/05/01 02:00:45;;;;;;;4.18;3.38;;;;;;;;;;5003442;28;20232;-19
2022/05/01 02:03:13;;;;;;;3.72;3.33;;;;;;;;;;5009485;28;20232;-18
2022/05/01 02:05:40;;;;;;;4.05;3.38;;;;;;;;;;5002067;28;20232;-17
2022/05/01 02:08:08;;;;;;;3.70;3.38;;;;;;;;;;5003967;28;20243;-18
2022/05/01 02:10:37;;;;;;;3.72;3.42;;;;;;;;;;5003714;28;20232;-17
2022/05/01 02:13:04;;;;;;;3.97;3.10;;;;;;;;;;5002205;28;20243;-17
2022/05/01 02:15:31;;;;;;;4.68;3.60;;;;;;;;;;5003037;28;20227;-18
2022/05/01 02:17:59;;;;;;;3.50;3.10;;;;;;;;;;5002584;28;20232;-15
2022/05/01 02:20:26;;;;;;;3.63;3.30;;;;;;;;;;5018104;22;20212;-19
2022/05/01 02:22:54;;;;;;;3.35;3.05;;;;;;;;;;5000837;28;20961;-19
2022/05/01 02:25:22;;;;;;;3.75;3.42;;;;;;;;;;5001919;28;20224;-19
2022/05/01 02:27:50;;;;;;;3.80;3.33;;;;;;;;;;5001185;28;20235;-19
2022/05/01 02:30:18;;;;;;;4.65;3.53;;;;;;;;;;4999983;28;20232;-19
2022/05/01 02:32:46;;;;;;;3.80;3.28;;;;;;;;;;5004100;28;20706;-19
2022/05/01 02:35:13;;;;;;;3.92;3.50;;;;;;;;;;5003958;28;20239;-19
2022/05/01 02:37:41;;;;;;;3.95;3.55;;;;;;;;;;5004688;28;20227;-19
2022/05/01 02:40:09;;;;;;;5.97;3.40;;;;;;;;;;5001284;28;20279;-19
2022/05/01 02:42:36;;;;;;;3.47;3.17;;;;;;;;;;5002853;28;20237;-19
2022/05/01 02:45:06;;;;;;;3.72;3.30;;;;;;;;;;5000225;28;20232;-19
2022/05/01 02:47:33;;;;;;;4.05;3.25;;;;;;;;;;5003474;28;20716;-19
2022/05/01 02:50:01;;;;;;;4.50;3.67;;;;;;;;;;5004335;28;20235;-19
2022/05/01 02:52:28;;;;;;;3.65;3.25;;;;;;;;;;5002794;28;21076;-19
2022/05/01 02:54:55;;;;;;;5.22;3.47;;;;;;;;;;5000567;28;20236;-19
2022/05/01 02:57:23;;;;;;;3.22;2.95;;;;;;;;;;5000760;28;20242;-19
2022/05/01 02:59:50;;;;;;;3.47;3.17;;;;;;;;;;5000041;28;20243;-19
2022/05/01 03:02:19;;;;;;;3.40;3.10;;;;;;;;;;5002499;28;20325;-19
2022/05/01 03:04:46;;;;;;;3.83;3.47;;;;;;;;;;5000133;28;20783;-19
2022/05/01 03:07:15;;;;;;;3.38;3.08;;;;;;;;;;5000933;28;20234;-19
2022/05/01 03:09:43;;;;;;;4.07;3.60;;;;;;;;;;5003896;28;20224;-19
2022/05/01 03:12:11;;;;;;;3.80;3.42;;;;;;;;;;4999725;28;20302;-19
2022/05/01 03:14:38;;;;;;;3.80;3.45;;;;;;;;;;5001572;28;20232;-19
2022/05/01 03:17:05;;;;;;;4.20;3.80;;;;;;;;;;5001905;28;20228;-19
2022/05/01 03:22:19;;;;;;;3.75;3.30;;;;;;;;;;5000075;28;20729;-19
2022/05/01 03:24:47;;;;;;;4.28;3.67;;;;;;;;;;5003022;28;20932;-19
2022/05/01 03:27:14;;;;;;;4.05;3.40;;;;;;;;;;5001452;28;20239;-19
2022/05/01 03:29:41;;;;;;;3.78;3.47;;;;;;;;;;5006846;28;20770;-19
2022/05/01 03:32:09;;;;;;;6.60;3.72;;;;;;;;;;5002554;28;20248;-19
2022/05/01 03:34:39;;;;;;;4.20;3.80;;;;;;;;;;5002755;28;21810;-19
2022/05/01 03:37:07;;;;;;;4.03;3.40;;;;;;;;;;5000984;28;20231;-19
2022/05/01 03:39:35;;;;;;;3.20;2.90;;;;;;;;;;5003801;28;20235;-19
2022/05/01 03:42:02;;;;;;;4.03;3.63;;;;;;;;;;5001511;28;20232;-19
2022/05/01 03:44:29;;;;;;;3.60;3.30;;;;;;;;;;5004068;28;20227;-19
2022/05/01 03:46:57;;;;;;;3.92;3.40;;;;;;;;;;5003324;28;20225;-19
2022/05/01 03:49:24;;;;;;;4.25;3.72;;;;;;;;;;5001881;28;20232;-19
2022/05/01 03:51:53;;;;;;;4.82;3.50;;;;;;;;;;5003484;28;20216;-19
2022/05/01 03:54:21;;;;;;;3.80;3.38;;;;;;;;;;5000282;28;20860;-19
2022/05/01 03:56:48;;;;;;;3.35;3.05;;;;;;;;;;5003630;28;20228;-19
2022/05/01 03:59:15;;;;;;;3.80;3.40;;;;;;;;;;5000840;28;20239;-19
2022/05/01 04:01:42;;;;;;;3.75;3.38;;;;;;;;;;5001700;28;20231;-19
2022/05/01 04:04:10;;;;;;;3.72;3.38;;;;;;;;;;5003352;28;20239;-19
2022/05/01 04:06:37;;;;;;;4.43;3.13;;;;;;;;;;5000531;28;20266;-19
2022/05/01 04:09:06;;;;;;;3.90;3.47;;;;;;;;;;5001956;28;20250;-19
2022/05/01 04:11:33;;;;;;;3.70;3.30;;;;;;;;;;5002414;28;20228;-19
2022/05/01 04:14:01;;;;;;;3.40;3.10;;;;;;;;;;5001355;28;20239;-19
2022/05/01 04:16:28;;;;;;;4.00;3.30;;;;;;;;;;5001524;28;20238;-19
2022/05/01 04:18:56;;;;;;;5.13;3.13;;;;;;;;;;5000842;28;20263;-19
2022/05/01 04:21:23;;;;;;;5.07;3.38;;;;;;;;;;4998793;28;20244;-19
2022/05/01 04:23:51;;;;;;;3.75;3.22;;;;;;;;;;5004089;28;20230;-19
2022/05/01 04:26:19;;;;;;;3.60;3.30;;;;;;;;;;5002984;28;20247;-19
2022/05/01 04:31:28;;;;;;;3.90;3.50;;;;;;;;;;5004156;28;20228;-19
2022/05/01 04:33:56;;;;;;;4.20;3.20;;;;;;;;;;4999814;28;20283;-19
2022/05/01 04:36:23;;;;;;;4.38;3.75;;;;;;;;;;5002562;28;20583;-19
2022/05/01 04:38:51;;;;;;;4.00;3.60;;;;;;;;;;4999004;28;20239;-19
2022/05/01 04:41:19;;;;;;;3.72;3.30;;;;;;;;;;5002635;28;20242;-19
2022/05/01 04:43:47;;;;;;;3.33;3.03;;;;;;;;;;5005464;28;20227;-19
2022/05/01 04:46:14;;;;;;;5.13;3.28;;;;;;;;;;5000945;28;20243;-19
2022/05/01 04:48:41;;;;;;;3.60;3.30;;;;;;;;;;5006025;28;20239;-19
2022/05/01 04:51:09;;;;;;;3.35;3.05;;;;;;;;;;5003553;28;20291;-19
2022/05/01 04:53:36;;;;;;;3.53;3.22;;;;;;;;;;5005151;28;20243;-19
2022/05/01 04:58:47;;;;;;;3.55;3.25;;;;;;;;;;5007690;28;20596;-19
2022/05/01 05:01:14;;;;;;;3.30;3.00;;;;;;;;;;5004617;28;20236;-19
2022/05/01 05:03:42;;;;;;;3.92;3.30;;;;;;;;;;5004940;28;20230;-18
2022/05/01 05:06:09;;;;;;;4.00;3.33;;;;;;;;;;5004218;28;20232;-19
2022/05/01 05:11:21;;;;;;;3.85;3.40;;;;;;;;;;5005149;28;20234;-18
2022/05/01 05:13:52;;;;;;;3.30;3.00;;;;;;;;;;5002207;28;20335;-18
2022/05/01 05:16:19;;;;;;;3.13;2.83;;;;;;;;;;5003308;28;20232;-19
2022/05/01 05:18:47;;;;;;;3.55;3.00;;;;;;;;;;5002770;28;20299;-19
2022/05/01 05:21:14;;;;;;;3.13;2.83;;;;;;;;;;5005339;28;20247;-19
2022/05/01 05:23:41;;;;;;;3.85;2.90;;;;;;;;;;5002461;28;20231;-18
2022/05/01 05:26:09;;;;;;;3.40;2.95;;;;;;;;;;5005096;28;20235;-19
2022/05/01 05:28:36;;;;;;;2.85;2.63;;;;;;;;;;5006832;28;20243;-18
2022/05/01 05:31:05;;;;;;;2.60;2.40;;;;;;;;;;5002203;28;20220;-19
2022/05/01 05:33:32;;;;;;;4.05;2.65;;;;;;;;;;5003478;28;20281;-19
2022/05/01 05:36:00;;;;;;;3.05;2.70;;;;;;;;;;5003747;28;21004;-19
2022/05/01 05:38:27;;;;;;;3.13;2.28;;;;;;;;;;5002761;28;20228;-18
2022/05/01 05:40:54;;;;;;;3.38;2.78;;;;;;;;;;5003120;28;20235;-18
2022/05/01 05:43:22;;;;;;;3.25;2.92;;;;;;;;;;5005082;28;20243;-18
2022/05/01 05:45:49;;;;;;;2.50;2.30;;;;;;;;;;5003169;28;20242;-19
2022/05/01 05:48:18;;;;;;;2.50;2.30;;;;;;;;;;5005218;28;20238;-19
2022/05/01 05:50:45;;;;;;;2.83;2.63;;;;;;;;;;5006217;28;20238;-19
2022/05/01 05:53:12;;;;;;;2.60;2.38;;;;;;;;;;5000878;28;20244;-19
2022/05/01 05:55:40;;;;;;;2.75;2.45;;;;;;;;;;5004898;28;20237;-19
2022/05/01 05:58:07;;;;;;;2.50;2.30;;;;;;;;;;5002484;28;20238;-19
2022/05/01 06:00:34;;;;;;;2.58;2.33;;;;;;;;;;5002535;28;20306;-18
2022/05/01 06:03:02;;;;;;;2.72;2.53;;;;;;;;;;5006092;28;20235;-18
2022/05/01 06:05:31;;;;;;;3.15;2.53;;;;;;;;;;5003115;28;20236;-19
2022/05/01 06:07:58;;;;;;;3.50;2.55;;;;;;;;;;5003449;28;20231;-18
2022/05/01 06:10:25;;;;;;;2.63;2.35;;;;;;;;;;5002848;28;20947;-18
2022/05/01 06:12:53;;;;;;;2.65;2.35;;;;;;;;;;5001890;28;21197;-19
2022/05/01 06:15:20;;;;;;;3.05;2.63;;;;;;;;;;5004318;28;20247;-19
2022/05/01 06:17:49;;;;;;;2.88;2.50;;;;;;;;;;5000751;28;20591;-19
2022/05/01 06:20:17;;;;;;;2.80;2.53;;;;;;;;;;5001123;28;20331;-18
2022/05/01 06:22:45;;;;;;;2.95;2.60;;;;;;;;;;5004078;28;20626;-19
2022/05/01 06:25:13;;;;;;;2.45;2.25;;;;;;;;;;5001741;28;20274;-19
2022/05/01 06:27:40;;;;;;;2.90;2.60;;;;;;;;;;5004164;28;20231;-19
2022/05/01 06:30:10;;;;;;;2.92;2.72;;;;;;;;;;5002390;28;20686;-18
2022/05/01 06:32:37;;;;;;;3.55;2.53;;;;;;;;;;5002265;28;20243;-18
2022/05/01 06:35:05;;;;;;;2.60;2.40;;;;;;;;;;5007838;28;20251;-19
2022/05/01 06:37:32;;;;;;;4.05;2.78;;;;;;;;;;5002219;28;20238;-19
2022/05/01 06:40:01;;;;;;;2.85;2.65;;;;;;;;;;5001151;28;20624;-18
2022/05/01 06:42:29;;;;;;;3.08;2.72;;;;;;;;;;5001633;28;20240;-19
2022/05/01 06:44:56;;;;;;;3.30;3.00;;;;;;;;;;5000040;28;20267;-18
2022/05/01 06:47:23;;;;;;;2.90;2.60;;;;;;;;;;4999963;28;20239;-19
2022/05/01 06:49:51;;;;;;;3.33;3.03;;;;;;;;;;5003935;28;21031;-19
2022/05/01 06:52:19;;;;;;;3.08;2.70;;;;;;;;;;5000633;28;20236;-19
2022/05/01 06:54:46;;;;;;;2.78;2.58;;;;;;;;;;5004013;28;20270;-19
2022/05/01 06:57:15;;;;;;;2.95;2.75;;;;;;;;;;5000921;28;20238;-19
2022/05/01 06:59:42;;;;;;;2.50;2.30;;;;;;;;;;5001108;28;20617;-19
2022/05/01 07:02:10;;;;;;;2.70;2.50;;;;;;;;;;5002876;28;20235;-19
2022/05/01 07:04:37;;;;;;;2.58;2.35;;;;;;;;;;5002802;28;20232;-18
2022/05/01 07:07:04;;;;;;;3.08;2.47;;;;;;;;;;5001669;28;20236;-18
2022/05/01 07:09:32;;;;;;;4.03;2.78;;;;;;;;;;5002851;28;20236;-19
2022/05/01 07:11:59;;;;;;;3.30;2.50;;;;;;;;;;5002619;28;20231;-19
2022/05/01 07:14:28;;;;;;;4.15;2.85;;;;;;;;;;5001469;28;20726;-19
2022/05/01 07:16:55;;;;;;;2.67;2.47;;;;;;;;;;5001929;28;20227;-18
2022/05/01 07:19:22;;;;;;;3.13;2.47;;;;;;;;;;5002729;28;20242;-19
2022/05/01 07:21:50;;;;;;;3.17;2.55;;;;;;;;;;5000303;28;20244;-18
2022/05/01 07:24:17;;;;;;;3.85;2.60;;;;;;;;;;5003660;28;20310;-19
2022/05/01 07:26:44;;;;;;;3.20;2.90;;;;;;;;;;5004249;28;20223;-19
2022/05/01 07:29:12;;;;;;;3.50;2.75;;;;;;;;;;5001242;28;20228;-18
2022/05/01 07:31:42;;;;;;;3.30;2.97;;;;;;;;;;5001576;28;20263;-19
2022/05/01 07:34:10;;;;;;;3.17;2.65;;;;;;;;;;5003017;28;20239;-19
2022/05/01 07:36:37;;;;;;;4.30;3.05;;;;;;;;;;5001040;28;20238;-18
2022/05/01 07:39:05;;;;;;;3.00;2.60;;;;;;;;;;5002544;28;21104;-19
2022/05/01 07:41:33;;;;;;;3.42;3.13;;;;;;;;;;5003388;28;20232;-18
2022/05/01 07:44:01;;;;;;;3.10;2.80;;;;;;;;;;5001649;28;20239;-18
2022/05/01 07:46:28;;;;;;;2.78;2.58;;;;;;;;;;5002092;28;20241;-18
2022/05/01 07:48:57;;;;;;;3.65;2.95;;;;;;;;;;5000977;28;20232;-18
2022/05/01 07:51:24;;;;;;;3.28;2.85;;;;;;;;;;5002889;28;21044;-19
2022/05/01 07:53:53;;;;;;;2.80;2.60;;;;;;;;;;5002678;28;20232;-19
2022/05/01 07:56:20;;;;;;;2.75;2.55;;;;;;;;;;4999802;28;20231;-18
2022/05/01 07:58:48;;;;;;;2.80;2.58;;;;;;;;;;5003334;28;20235;-18
2022/05/01 08:01:15;;;;;;;3.05;2.85;;;;;;;;;;5002110;28;20239;-19
2022/05/01 08:06:29;;;;;;;2.70;2.50;;;;;;;;;;5004080;28;20695;-19
2022/05/01 08:08:56;;;;;;;3.13;2.67;;;;;;;;;;5000934;28;20234;-19
2022/05/01 08:11:24;;;;;;;3.00;2.63;;;;;;;;;;5001996;28;20732;-19
2022/05/01 08:13:51;;;;;;;3.15;2.90;;;;;;;;;;5003607;28;20269;-19
2022/05/01 08:16:19;;;;;;;3.25;2.58;;;;;;;;;;5002146;28;20235;-18
2022/05/01 08:21:33;;;;;;;2.60;2.40;;;;;;;;;;5008273;28;20372;-19
2022/05/01 08:24:00;;;;;;;3.00;2.70;;;;;;;;;;5005904;28;20717;-19
2022/05/01 08:26:31;;;;;;;3.85;3.03;;;;;;;;;;5003430;28;20240;-18
2022/05/01 08:28:58;;;;;;;2.85;2.65;;;;;;;;;;5004465;28;20236;-18
2022/05/01 08:31:25;;;;;;;2.63;2.42;;;;;;;;;;5007961;28;20227;-19
2022/05/01 08:33:54;;;;;;;3.05;2.75;;;;;;;;;;5003508;28;20239;-19
2022/05/01 08:36:21;;;;;;;3.10;2.80;;;;;;;;;;5005665;28;20244;-19
2022/05/01 08:38:50;;;;;;;2.75;2.55;;;;;;;;;;5006775;28;20231;-19
2022/05/01 08:41:17;;;;;;;3.63;3.10;;;;;;;;;;5006136;28;20232;-19
2022/05/01 08:43:45;;;;;;;2.97;2.75;;;;;;;;;;5006368;28;20235;-19
2022/05/01 08:46:16;;;;;;;2.63;2.42;;;;;;;;;;5003802;28;20630;-19
2022/05/01 08:48:45;;;;;;;3.10;2.83;;;;;;;;;;5006357;28;20777;-18
2022/05/01 08:51:13;;;;;;;2.95;2.53;;;;;;;;;;5002767;28;20751;-19
2022/05/01 08:53:40;;;;;;;3.30;3.00;;;;;;;;;;5005657;28;20235;-19
2022/05/01 08:56:09;;;;;;;3.25;2.95;;;;;;;;;;5003331;28;20239;-18
2022/05/01 08:58:36;;;;;;;3.78;2.90;;;;;;;;;;5004048;28;20236;-19
2022/05/01 09:01:03;;;;;;;3.80;3.30;;;;;;;;;;5004391;28;21022;-19
2022/05/01 09:03:31;;;;;;;3.30;3.00;;;;;;;;;;5004075;28;20216;-19
2022/05/01 09:05:58;;;;;;;3.33;3.03;;;;;;;;;;5003750;28;21115;-18
2022/05/01 09:08:26;;;;;;;3.88;3.22;;;;;;;;;;5003430;28;20232;-19
2022/05/01 09:10:53;;;;;;;3.83;3.03;;;;;;;;;;5002585;28;20236;-19
2022/05/01 09:13:24;;;;;;;3.13;2.83;;;;;;;;;;5005608;28;20714;-19
2022/05/01 09:15:51;;;;;;;3.38;2.90;;;;;;;;;;5004130;28;20714;-19
2022/05/01 09:18:19;;;;;;;3.33;2.85;;;;;;;;;;5003730;28;20730;-19
2022/05/01 09:21:02;;;;;;;3.00;2.75;;;;;;;;;;5005603;28;20250;-19
2022/05/01 09:23:36;;;;;;;2.60;2.40;;;;;;;;;;5003731;28;21009;-19
2022/05/01 09:26:03;;;;;;;3.33;3.03;;;;;;;;;;5003627;28;20246;-19
2022/05/01 09:28:37;;;;;;;3.33;2.83;;;;;;;;;;5003993;28;20220;-19
2022/05/01 09:31:04;;;;;;;3.45;3.15;;;;;;;;;;5002622;28;20688;-18
2022/05/01 09:33:32;;;;;;;3.15;2.85;;;;;;;;;;5003941;28;20240;-18
2022/05/01 09:36:00;;;;;;;2.92;2.50;;;;;;;;;;5003241;28;20246;-18
2022/05/01 09:38:27;;;;;;;3.05;2.75;;;;;;;;;;5006227;28;20234;-18
2022/05/01 09:40:56;;;;;;;3.50;2.72;;;;;;;;;;5005198;28;20283;-19
2022/05/01 09:43:37;;;;;;;3.25;2.75;;;;;;;;;;5002657;28;20233;-19
2022/05/01 09:46:17;;;;;;;3.17;2.88;;;;;;;;;;5003393;28;20220;-19
2022/05/01 09:48:56;;;;;;;3.03;2.72;;;;;;;;;;5005518;28;20266;-19
2022/05/01 09:51:23;;;;;;;3.50;3.20;;;;;;;;;;5008350;28;20239;-18
2022/05/01 09:53:51;;;;;;;3.47;2.83;;;;;;;;;;5005024;28;20246;-18
2022/05/01 09:56:18;;;;;;;2.83;2.50;;;;;;;;;;5001789;28;20746;-18
2022/05/01 09:58:47;;;;;;;2.95;2.47;;;;;;;;;;5005321;28;20227;-18
2022/05/01 10:01:15;;;;;;;2.85;2.65;;;;;;;;;;4999092;28;20232;-19
2022/05/01 10:03:42;;;;;;;4.40;2.65;;;;;;;;;;5006320;28;21054;-19
2022/05/01 10:06:11;;;;;;;3.92;2.35;;;;;;;;;;5001803;28;20236;-18
2022/05/01 10:08:39;;;;;;;3.60;2.55;;;;;;;;;;5004438;28;20238;-19
2022/05/01 10:11:06;;;;;;;3.70;3.17;;;;;;;;;;5005085;28;20231;-19
2022/05/01 10:13:34;;;;;;;3.42;3.13;;;;;;;;;;5001107;28;20382;-18
2022/05/01 10:16:07;;;;;;;3.05;2.75;;;;;;;;;;5003558;28;20587;-19
2022/05/01 10:18:34;;;;;;;2.92;2.55;;;;;;;;;;5003766;28;20425;-18
2022/05/01 10:21:02;;;;;;;3.53;3.15;;;;;;;;;;5002306;28;20247;-19
2022/05/01 10:23:29;;;;;;;2.92;2.35;;;;;;;;;;5002634;28;20980;-18
2022/05/01 10:25:58;;;;;;;2.92;2.63;;;;;;;;;;5004009;28;20231;-19
2022/05/01 10:28:58;;;;;;;2.60;2.40;;;;;;;;;;5005148;28;20228;-18
2022/05/01 10:34:21;;;;;;;2.90;2.60;;;;;;;;;;5005093;28;20294;-18
2022/05/01 10:37:00;;;;;;;2.72;2.45;;;;;;;;;;4996932;28;20244;-19
2022/05/01 10:39:29;;;;;;;3.08;2.47;;;;;;;;;;4997914;28;20216;-18
2022/05/01 10:41:57;;;;;;;2.53;2.33;;;;;;;;;;5003821;28;20240;-18
2022/05/01 10:44:30;;;;;;;2.85;2.55;;;;;;;;;;5003545;28;20257;-19
2022/05/01 10:47:05;;;;;;;2.75;2.55;;;;;;;;;;5000814;28;20695;-18
2022/05/01 10:49:33;;;;;;;2.58;2.33;;;;;;;;;;5002621;28;20238;-19
2022/05/01 10:52:13;;;;;;;2.55;2.35;;;;;;;;;;5001950;28;20235;-19
2022/05/01 10:54:40;;;;;;;2.83;2.40;;;;;;;;;;5001169;28;20236;-18
2022/05/01 10:57:08;;;;;;;2.67;2.47;;;;;;;;;;5003090;28;20250;-19
2022/05/01 10:59:38;;;;;;;2.50;2.30;;;;;;;;;;5000748;28;20224;-19
2022/05/01 11:02:22;;;;;;;2.67;2.20;;;;;;;;;;5002736;28;21182;-18
2022/05/01 11:04:50;;;;;;;2.85;2.53;;;;;;;;;;5001098;28;20990;-19
2022/05/01 11:07:18;;;;;;;3.30;2.55;;;;;;;;;;5004055;28;20235;-19
2022/05/01 11:09:46;;;;;;;2.40;2.20;;;;;;;;;;5003559;28;21108;-19
2022/05/01 11:12:15;;;;;;;2.58;2.38;;;;;;;;;;5000870;28;20963;-18
2022/05/01 11:14:44;;;;;;;2.28;2.08;;;;;;;;;;5003716;28;20736;-18
2022/05/01 11:17:12;;;;;;;2.70;2.50;;;;;;;;;;5000834;28;21025;-18
2022/05/01 11:19:46;;;;;;;2.88;2.60;;;;;;;;;;5000816;28;20235;-18
2022/05/01 11:22:14;;;;;;;3.20;2.40;;;;;;;;;;5003601;28;20243;-18
2022/05/01 11:24:42;;;;;;;2.65;2.45;;;;;;;;;;5003797;28;20238;-18
2022/05/01 11:27:12;;;;;;;3.60;2.30;;;;;;;;;;5000997;28;20704;-18
2022/05/01 11:29:40;;;;;;;3.00;2.70;;;;;;;;;;5003458;28;20235;-18
2022/05/01 11:32:17;;;;;;;4.03;2.72;;;;;;;;;;5002086;28;20234;-18
2022/05/01 11:34:52;;;;;;;2.72;2.30;;;;;;;;;;5004741;28;20845;-18
2022/05/01 11:37:20;;;;;;;2.90;2.60;;;;;;;;;;5000465;28;20707;-18
2022/05/01 11:40:20;;;;;;;2.85;2.65;;;;;;;;;;5003657;28;20761;-18
2022/05/01 11:42:47;;;;;;;2.95;2.47;;;;;;;;;;5005567;28;20266;-19
2022/05/01 11:45:15;;;;;;;2.70;2.50;;;;;;;;;;5005643;28;20236;-19
2022/05/01 11:47:43;;;;;;;3.72;2.75;;;;;;;;;;5000345;28;20223;-19
2022/05/01 11:50:19;;;;;;;3.67;2.78;;;;;;;;;;5000165;28;20239;-19
2022/05/01 11:52:50;;;;;;;2.95;2.70;;;;;;;;;;5004431;28;20231;-19
2022/05/01 11:55:21;;;;;;;2.70;2.20;;;;;;;;;;5000177;28;20228;-19
2022/05/01 12:03:29;;;;;;;3.00;2.65;;;;;;;;;;5008436;28;20231;-19
2022/05/01 12:05:58;;;;;;;3.15;2.42;;;;;;;;;;5002079;28;20234;-19
2022/05/01 12:08:25;;;;;;;3.28;2.53;;;;;;;;;;5000156;28;21029;-19
2022/05/01 12:10:52;;;;;;;5.32;2.45;;;;;;;;;;5003181;28;20246;-19
2022/05/01 12:13:20;;;;;;;4.38;2.63;;;;;;;;;;5002916;28;20608;-20
2022/05/01 12:15:48;;;;;;;3.67;2.83;;;;;;;;;;5001434;28;20224;-19
2022/05/01 12:18:15;;;;;;;3.63;2.75;;;;;;;;;;5003591;28;20235;-19
2022/05/01 12:20:43;;;;;;;3.10;2.80;;;;;;;;;;4999251;28;20614;-19
2022/05/01 12:23:15;;;;;;;3.20;2.50;;;;;;;;;;5002718;28;20247;-19
2022/05/01 12:25:43;;;;;;;2.83;2.40;;;;;;;;;;4999233;28;21465;-19
2022/05/01 12:28:11;;;;;;;2.75;2.55;;;;;;;;;;4999647;28;20235;-20
2022/05/01 12:30:38;;;;;;;3.55;2.72;;;;;;;;;;5002391;28;20242;-20
2022/05/01 12:33:06;;;;;;;3.40;2.85;;;;;;;;;;4999791;28;20231;-19
2022/05/01 12:35:48;;;;;;;2.95;2.65;;;;;;;;;;5001467;28;20232;-19
2022/05/01 12:38:16;;;;;;;3.63;2.65;;;;;;;;;;4996863;28;20246;-19
2022/05/01 12:46:23;;;;;;;2.42;2.22;;;;;;;;;;4997245;28;20989;-19
2022/05/01 12:48:50;;;;;;;3.00;2.65;;;;;;;;;;5002581;28;21041;-20
2022/05/01 12:51:18;;;;;;;3.22;2.92;;;;;;;;;;4999363;28;20246;-19
2022/05/01 12:53:47;;;;;;;3.53;2.75;;;;;;;;;;5002566;28;20236;-19
2022/05/01 12:56:18;;;;;;;3.22;2.92;;;;;;;;;;4999711;28;20228;-19
2022/05/01 12:58:45;;;;;;;3.42;3.13;;;;;;;;;;4996992;28;20236;-19
2022/05/01 13:01:21;;;;;;;3.83;3.35;;;;;;;;;;5001682;28;20231;-20
2022/05/01 13:03:49;;;;;;;2.72;2.47;;;;;;;;;;5000824;28;20227;-19
2022/05/01 13:06:17;;;;;;;3.22;2.72;;;;;;;;;;5002598;28;20990;-19
2022/05/01 13:08:44;;;;;;;4.40;3.15;;;;;;;;;;5005842;28;20238;-19
2022/05/01 13:11:18;;;;;;;3.10;2.80;;;;;;;;;;5003595;28;20251;-19
2022/05/01 13:13:46;;;;;;;3.90;3.10;;;;;;;;;;4998330;28;20247;-19
2022/05/01 13:16:13;;;;;;;4.20;3.15;;;;;;;;;;5004411;28;20704;-19
2022/05/01 13:18:41;;;;;;;3.80;3.30;;;;;;;;;;5002114;28;20330;-19
2022/05/01 13:21:08;;;;;;;3.20;2.90;;;;;;;;;;5005537;28;20239;-19
2022/05/01 13:23:36;;;;;;;3.97;2.97;;;;;;;;;;5004954;28;20232;-19
2022/05/01 13:26:03;;;;;;;4.65;3.20;;;;;;;;;;5006029;28;20235;-19
2022/05/01 13:28:32;;;;;;;3.70;3.20;;;;;;;;;;5003918;28;20239;-19
2022/05/01 13:30:59;;;;;;;2.72;2.53;;;;;;;;;;5004449;28;20995;-19
2022/05/01 13:33:27;;;;;;;3.45;2.92;;;;;;;;;;5002201;28;20235;-19
2022/05/01 13:35:54;;;;;;;3.15;2.85;;;;;;;;;;5003131;28;20228;-19
2022/05/01 13:38:21;;;;;;;3.63;3.05;;;;;;;;;;5001200;28;20731;-19
2022/05/01 13:46:19;;;;;;;3.53;3.00;;;;;;;;;;5006340;28;20706;-19
2022/05/01 13:48:46;;;;;;;3.20;2.85;;;;;;;;;;5001143;28;20232;-19
2022/05/01 13:51:16;;;;;;;3.53;2.88;;;;;;;;;;5005830;28;20252;-19
2022/05/01 13:53:44;;;;;;;3.58;3.00;;;;;;;;;;5002738;28;20242;-19
2022/05/01 13:56:12;;;;;;;3.60;3.15;;;;;;;;;;5005393;28;20227;-19
2022/05/01 13:58:41;;;;;;;3.00;2.60;;;;;;;;;;5002225;28;20251;-19
2022/05/01 14:01:08;;;;;;;3.80;2.53;;;;;;;;;;5003723;28;20263;-19
2022/05/01 14:03:35;;;;;;;4.10;2.95;;;;;;;;;;5004218;28;20649;-19
2022/05/01 14:06:03;;;;;;;3.95;2.63;;;;;;;;;;5001743;28;20232;-19
2022/05/01 14:08:30;;;;;;;3.45;3.00;;;;;;;;;;5003629;28;21065;-19
2022/05/01 14:10:57;;;;;;;3.83;2.78;;;;;;;;;;5005591;28;20235;-19
2022/05/01 14:13:25;;;;;;;3.85;3.28;;;;;;;;;;5001022;28;20238;-19
2022/05/01 14:15:54;;;;;;;3.95;2.80;;;;;;;;;;5004675;28;20695;-19
2022/05/01 14:18:21;;;;;;;3.38;3.00;;;;;;;;;;5001650;28;20252;-19
2022/05/01 14:20:48;;;;;;;3.30;3.00;;;;;;;;;;5004269;28;20617;-19
2022/05/01 14:23:16;;;;;;;3.35;2.95;;;;;;;;;;5001492;28;20232;-19
2022/05/01 14:25:47;;;;;;;3.85;3.20;;;;;;;;;;5005538;28;20267;-19
2022/05/01 14:28:15;;;;;;;3.15;2.85;;;;;;;;;;5002344;28;20242;-19
2022/05/01 14:30:43;;;;;;;4.28;3.15;;;;;;;;;;5003031;28;20687;-19
2022/05/01 14:33:14;;;;;;;3.45;3.03;;;;;;;;;;5005182;28;20240;-19
2022/05/01 14:35:41;;;;;;;4.80;3.25;;;;;;;;;;5004227;28;20223;-19
2022/05/01 14:38:09;;;;;;;4.20;2.90;;;;;;;;;;5000455;28;20247;-19
2022/05/01 14:40:37;;;;;;;3.10;2.80;;;;;;;;;;5004498;28;20700;-19
2022/05/01 14:43:07;;;;;;;3.08;2.78;;;;;;;;;;5001945;28;20224;-19
2022/05/01 14:45:35;;;;;;;3.47;2.83;;;;;;;;;;5002777;28;20239;-19
2022/05/01 14:48:05;;;;;;;3.20;2.90;;;;;;;;;;5005181;28;20247;-19
2022/05/01 14:50:39;;;;;;;3.05;2.85;;;;;;;;;;5004550;28;20302;-19
2022/05/01 14:53:06;;;;;;;4.05;3.25;;;;;;;;;;5005069;28;20240;-19
2022/05/01 14:55:34;;;;;;;3.30;2.78;;;;;;;;;;5001858;28;20235;-19
2022/05/01 14:58:01;;;;;;;3.20;2.90;;;;;;;;;;5002543;28;20232;-19
2022/05/01 15:06:18;;;;;;;3.35;3.00;;;;;;;;;;5002158;28;20243;-19
2022/05/01 15:08:46;;;;;;;4.03;3.40;;;;;;;;;;5004558;28;20696;-19
2022/05/01 15:11:13;;;;;;;2.92;2.60;;;;;;;;;;5003245;28;20227;-19
2022/05/01 15:13:40;;;;;;;3.25;2.92;;;;;;;;;;5001005;28;20236;-19
2022/05/01 15:16:12;;;;;;;3.53;3.22;;;;;;;;;;5002872;28;20242;-19
2022/05/01 15:18:42;;;;;;;4.50;3.60;;;;;;;;;;5003489;28;21238;-19
2022/05/01 15:21:13;;;;;;;6.88;3.30;;;;;;;;;;5000482;28;20256;-19
2022/05/01 15:23:42;;;;;;;3.63;3.17;;;;;;;;;;5003705;28;20331;-19
2022/05/01 15:26:10;;;;;;;3.97;3.17;;;;;;;;;;5003347;28;20235;-19
2022/05/01 15:28:37;;;;;;;3.20;3.00;;;;;;;;;;4999277;28;20668;-19
2022/05/01 15:31:05;;;;;;;3.50;3.20;;;;;;;;;;5001123;28;20235;-19
2022/05/01 15:33:45;;;;;;;4.05;3.20;;;;;;;;;;5000543;28;20287;-19
2022/05/01 15:36:19;;;;;;;5.35;3.45;;;;;;;;;;5000251;28;21035;-19
2022/05/01 15:38:46;;;;;;;3.92;2.83;;;;;;;;;;5000530;28;20251;-19
2022/05/01 15:41:17;;;;;;;4.32;3.20;;;;;;;;;;5000063;28;20986;-19